Řízení letového provozu České republiky  
Aktualizace dat:  16.04.2024 06:50:59 UTC English version
   METEO Zobrazení stránky:  16.04.2024 06:50:54 UTC  
vysvětlivky
METAR EDAC 160620Z 21011KT 9999 FEW039 BKN045 06/01 Q1002=
METAR EDDB 160620Z AUTO 24016KT 9999 SHRA FEW019 BKN025 BKN034 FEW///CB 06/04 Q0998 TEMPO 25015G25KT SHRA=
METAR EDDC 160620Z AUTO 25013KT 210V270 9999 FEW033 SCT049 07/00 Q1002 TEMPO 25015G25KT=
METAR EDDE 160620Z AUTO 24018KT 9999 SCT028 SCT033 05/M00 Q1001 TEMPO 24020G30KT=
METAR EDDF 160620Z AUTO 21016KT 9999 FEW033 SCT046 06/02 Q1005 TEMPO 21015G25KT=
METAR EDDM 160620Z AUTO 24015KT 9999 BKN020 04/01 Q1009 BECMG FM0800 26020G30KT=
METAR EDDN 160620Z AUTO 23010KT 9999 FEW044 04/01 Q1007 BECMG FM0700 25015KT=
METAR EDDP 160620Z AUTO 22016KT 9999 FEW029 07/01 Q1001 TEMPO 24015G25KT=
METAR EDQM 160620Z 23016KT 9999 FEW018 SCT022 BKN029 02/00 Q1003=
METAR EPBY 160630Z 25018KT 9999 BKN017 06/03 Q0996=
METAR EPGD 160630Z 24012KT 8000 -SHRA SCT003 SCT006CB BKN008 03/03 Q0992 RESHRA=
METAR EPKK 160630Z 29015KT 9999 FEW033 08/03 Q1002=
METAR EPKT 160630Z 29009KT 230V330 CAVOK 05/M00 Q1002=
METAR EPLB 160630Z 28017KT 9999 FEW012 BKN016 BKN026 11/08 Q0999=
METAR EPLL 160630Z 25021G31KT 9999 SCT027 BKN033 06/01 Q1000=
METAR EPMO 160630Z 25021KT 9999 BKN016CB 06/04 Q0998=
METAR EPPO 160630Z 23011G21KT 9999 FEW020 BKN043 06/02 Q0999=
METAR EPRZ 160630Z 24009KT 9999 FEW046 11/08 Q1001=
METAR EPWA 160630Z 26019G29KT 9999 BKN025 07/02 Q0998 NOSIG=
METAR EPWR 160630Z 25011G21KT 210V280 CAVOK 08/M00 Q1002=
METAR LHBP 160630Z 33012KT 9999 -RA SCT047 BKN055 11/08 Q1005 NOSIG=
METAR LHPR 160615Z AUTO 33011KT 9999 -RA FEW036 OVC054 09/07 Q1007 TEMPO RA=
METAR LHSM 160615Z AUTO 34015KT 9999 BKN045 12/07 Q1005 NOSIG=
METAR LKBC 160630Z AUTO 25013KT //// // FEW094 OVC120 05/M01 Q1005=
METAR LKCR 160630Z AUTO 26013KT 9999 BKN130 BKN160 07/01 Q1004=
METAR LKCS 160630Z AUTO 26011KT 230V290 9999 FEW031/// 05/M00 Q1006=
METAR LKCV 160630Z 25012KT 9999 BKN048 07/00 Q1004 NOSIG RMK BLU BLU=
METAR LKKB 160630Z 23013KT 9999 SCT029 BKN050 07/00 Q1004 NOSIG RMK BLU BLU=
METAR LKKU 160600Z 29003KT 260V340 CAVOK 08/02 Q1004=
SPECI LKKV 160642Z 23008G18KT 170V290 9999 3000N -SHRASN FEW020TCU BKN022 BKN028 04/M01 Q1003=
SPECI LKLN 160646Z AUTO 23013G23KT 9999 // BKN014 OVC022 04/02 Q1006=
METAR LKMT 160630Z 23014KT 9999 FEW030 06/00 Q1004 NOSIG=
METAR LKNA 160630Z 28010KT 9999 FEW038 BKN120 05/M02 Q1005 NOSIG RMK BLU BLU=
METAR LKPD 160630Z 25014KT CAVOK 07/M00 Q1004 NOSIG RMK BLU BLU=
METAR LKPJ 160630Z AUTO 28009KT 250V310 9999 // SCT049/// BKN100/// 08/M01 Q1005=
METAR LKPR 160630Z 23016KT 9999 FEW028 SCT047 06/00 Q1004 NOSIG=
METAR LKTB 160630Z 27012KT 9999 FEW042 07/M01 Q1006 NOSIG=
METAR LKTH 160630Z AUTO VRB05G17KT 9999 BKN110 04/M01 Q1003=
METAR LKVO 160630Z 24012KT 9999 FEW026 BKN045 07/01 Q1004=
METAR LOWG 160620Z AUTO 34012KT 310V010 8000 RA FEW012 SCT017 BKN024 08/06 Q1003 TEMPO 4000 +SHRA=
METAR LOWI 160620Z 13005KT 070V200 9999 -SHRA FEW020 SCT030 BKN045 07/01 Q1009 TEMPO 27015G25KT SHRA=
METAR LOWK 160620Z AUTO 05007KT 9999 FEW048 BKN050 15/04 Q1000 NOSIG=
METAR LOWL 160620Z AUTO 26015KT 9999 FEW026 BKN034 06/02 Q1009 NOSIG=
METAR LOWS 160620Z AUTO 30007KT 270V340 9999 FEW015 SCT025 BKN045 05/01 Q1010 TEMPO SHRA=
METAR LOWW 160620Z 29018KT 9999 -RA FEW024 BKN030 07/03 Q1007 NOSIG=
METAR LOXT 160620Z 25019KT 25KM FEW045SC BKN050SC BKN060SC 07/02 Q1007 NOSIG RMK BKN=
METAR LOXZ 160620Z 07010KT 020V080 5000 -SHRA FEW008 SCT020 FEW025TCU BKN030 04/02 Q1005 TEMPO 3000 SHRA=
METAR LZIB 160630Z 25008KT 9999 RA FEW017 BKN026 BKN032 08/06 Q1007 NOSIG=
METAR LZKZ 160630Z 15008KT 5000 -RA BR SCT010 11/10 Q1003 TEMPO 2800 RA BR BKN009=
METAR LZMC 160600Z 27006KT 9999 -RA FEW007 SCT020 OVC030 07/06 Q1006=
METAR LZPP 160630Z 28011KT 9999 -RA OVC036 07/03 Q1006=
METAR LZSL 160600Z 29008KT 9999 -RA SCT038 OVC070 09/06 Q1005=
METAR LZTT 160630Z 26014KT 9999 -RA FEW020 SCT040 OVC060 07/05 Q1002 NOSIG=
METAR LZZI 160630Z 27009KT 9999 FEW045 07/02 Q1004=